createdAt,value
2022-12-01T00:01:31.272Z,1.52
2022-12-01T00:03:59.690Z,1.52
2022-12-01T00:06:28.416Z,1.52
2022-12-01T00:09:19.459Z,1.53
2022-12-01T00:11:48.890Z,1.51
2022-12-01T00:14:17.515Z,1.49
2022-12-01T00:16:46.090Z,1.48
2022-12-01T00:19:14.854Z,1.49
2022-12-01T00:21:43.393Z,1.47
2022-12-01T00:24:12.072Z,1.45
2022-12-01T00:26:40.802Z,1.45
2022-12-01T00:29:11.850Z,1.43
2022-12-01T00:31:40.642Z,1.42
2022-12-01T00:34:30.571Z,1.39
2022-12-01T00:37:06.378Z,1.37
2022-12-01T00:39:37.323Z,1.37
2022-12-01T00:42:15.123Z,1.37
2022-12-01T00:44:44.718Z,1.37
2022-12-01T00:47:13.544Z,1.36
2022-12-01T00:49:44.757Z,1.36
2022-12-01T00:52:13.824Z,1.38
2022-12-01T00:54:42.124Z,1.40
2022-12-01T00:57:12.546Z,1.41
2022-12-01T00:59:53.808Z,1.42
2022-12-01T01:02:22.472Z,1.43
2022-12-01T01:04:52.011Z,1.44
2022-12-01T01:07:22.200Z,1.44
2022-12-01T01:09:51.535Z,1.45
2022-12-01T01:12:20.662Z,1.46
2022-12-01T01:14:58.456Z,1.45
2022-12-01T01:17:27.795Z,1.47
2022-12-01T01:19:56.859Z,1.46
2022-12-01T01:22:26.003Z,1.47
2022-12-01T01:24:55.357Z,1.47
2022-12-01T01:27:24.547Z,1.47
2022-12-01T01:29:53.217Z,1.46
2022-12-01T01:32:22.451Z,1.47
2022-12-01T01:34:50.926Z,1.47
2022-12-01T01:37:19.104Z,1.48
2022-12-01T01:39:48.284Z,1.46
2022-12-01T01:42:20.296Z,1.46
2022-12-01T01:44:51.442Z,1.45
2022-12-01T01:47:22.441Z,1.44
2022-12-01T01:49:51.126Z,1.43
2022-12-01T01:52:19.625Z,1.43
2022-12-01T01:54:51.436Z,1.41
2022-12-01T01:57:25.284Z,1.41
2022-12-01T01:59:57.313Z,1.41
2022-12-01T02:02:26.065Z,1.40
2022-12-01T02:05:00.153Z,1.39
2022-12-01T02:07:29.018Z,1.36
2022-12-01T02:09:57.471Z,1.36
2022-12-01T02:12:48.751Z,1.36
2022-12-01T02:15:24.890Z,1.37
2022-12-01T02:18:01.748Z,1.36
2022-12-01T02:20:45.545Z,1.35
2022-12-01T02:23:31.963Z,1.34
2022-12-01T02:26:16.364Z,1.34
2022-12-01T02:29:01.835Z,1.34
2022-12-01T02:31:36.304Z,1.33
2022-12-01T02:34:12.817Z,1.32
2022-12-01T02:36:46.032Z,1.31
2022-12-01T02:39:18.953Z,1.31
2022-12-01T02:41:51.016Z,1.30
2022-12-01T02:44:30.127Z,1.30
2022-12-01T02:47:02.097Z,1.30
2022-12-01T02:49:34.903Z,1.29
2022-12-01T02:52:06.709Z,1.30
2022-12-01T02:54:36.317Z,1.30
2022-12-01T02:57:05.535Z,1.29
2022-12-01T02:59:33.964Z,1.29
2022-12-01T03:02:07.955Z,1.28
2022-12-01T03:04:38.975Z,1.28
2022-12-01T03:07:17.348Z,1.27
2022-12-01T03:09:58.559Z,1.26
2022-12-01T03:12:29.902Z,1.25
2022-12-01T03:15:03.372Z,1.25
2022-12-01T03:17:38.352Z,1.25
2022-12-01T03:20:13.356Z,1.25
2022-12-01T03:22:48.524Z,1.25
2022-12-01T03:25:18.000Z,1.24
2022-12-01T03:28:19.243Z,1.24
2022-12-01T03:30:38.022Z,1.23
2022-12-01T03:33:09.577Z,1.21
2022-12-01T03:35:41.824Z,1.21
2022-12-01T03:38:14.448Z,1.21
2022-12-01T03:40:43.895Z,1.20
2022-12-01T03:43:15.654Z,1.18
2022-12-01T03:45:51.045Z,1.18
2022-12-01T03:48:21.056Z,1.18
2022-12-01T03:50:56.286Z,1.18
2022-12-01T03:53:27.938Z,1.18
2022-12-01T03:56:04.039Z,1.18
2022-12-01T03:58:39.284Z,1.17
2022-12-01T04:01:22.916Z,1.17
2022-12-01T04:03:53.966Z,1.15
2022-12-01T04:06:31.356Z,1.15
2022-12-01T04:09:00.522Z,1.15
2022-12-01T04:11:48.028Z,1.15
2022-12-01T04:14:17.006Z,1.15
2022-12-01T04:16:45.451Z,1.15
2022-12-01T04:19:14.532Z,1.15
2022-12-01T04:21:43.200Z,1.15
2022-12-01T04:24:12.706Z,1.15
2022-12-01T04:26:43.108Z,1.15
2022-12-01T04:29:11.996Z,1.15
2022-12-01T04:31:40.948Z,1.16
2022-12-01T04:34:12.557Z,1.16
2022-12-01T04:36:41.204Z,1.15
2022-12-01T04:39:15.060Z,1.15
2022-12-01T04:41:43.978Z,1.16
2022-12-01T04:44:14.103Z,1.15
2022-12-01T04:46:43.798Z,1.15
2022-12-01T04:49:13.000Z,1.16
2022-12-01T04:51:42.088Z,1.16
2022-12-01T04:54:10.855Z,1.16
2022-12-01T04:56:39.696Z,1.16
2022-12-01T04:59:08.394Z,1.15
2022-12-01T05:01:36.794Z,1.14
2022-12-01T05:04:05.340Z,1.14
2022-12-01T05:06:33.648Z,1.13
2022-12-01T05:09:02.454Z,1.13
2022-12-01T05:11:32.547Z,1.13
2022-12-01T05:14:01.399Z,1.14
2022-12-01T05:16:31.787Z,1.14
2022-12-01T05:19:21.118Z,1.13
2022-12-01T05:21:50.762Z,1.13
2022-12-01T05:24:20.713Z,1.12
2022-12-01T05:26:49.195Z,1.13
2022-12-01T05:29:18.572Z,1.12
2022-12-01T05:31:47.741Z,1.13
2022-12-01T05:34:18.074Z,1.13
2022-12-01T05:36:47.127Z,1.14
2022-12-01T05:39:18.380Z,1.16
2022-12-01T05:41:46.853Z,1.15
2022-12-01T05:44:15.107Z,1.16
2022-12-01T05:46:43.569Z,1.15
2022-12-01T05:49:11.865Z,1.14
2022-12-01T05:51:40.196Z,1.13
2022-12-01T05:54:09.275Z,1.12
2022-12-01T05:56:40.867Z,1.12
2022-12-01T05:59:12.197Z,1.12
2022-12-01T06:01:41.738Z,1.13
2022-12-01T06:04:10.095Z,1.13
2022-12-01T06:06:38.355Z,1.14
2022-12-01T06:09:07.873Z,1.14
2022-12-01T06:11:42.161Z,1.15
2022-12-01T06:14:12.681Z,1.15
2022-12-01T06:16:41.435Z,1.16
2022-12-01T06:19:11.829Z,1.17
2022-12-01T06:21:40.192Z,1.18
2022-12-01T06:24:09.705Z,1.18
2022-12-01T06:26:38.264Z,1.18
2022-12-01T06:29:06.613Z,1.19
2022-12-01T06:31:35.010Z,1.20
2022-12-01T06:34:03.295Z,1.18
2022-12-01T06:36:31.853Z,1.18
2022-12-01T06:39:00.538Z,1.18
2022-12-01T06:41:29.052Z,1.18
2022-12-01T06:43:57.470Z,1.18
2022-12-01T06:46:26.031Z,1.19
2022-12-01T06:48:54.430Z,1.21
2022-12-01T06:51:23.691Z,1.21
2022-12-01T06:53:54.420Z,1.22
2022-12-01T06:56:22.935Z,1.23
2022-12-01T06:58:52.978Z,1.22
2022-12-01T07:01:22.030Z,1.23
2022-12-01T07:03:54.701Z,1.24
2022-12-01T07:06:24.212Z,1.24
2022-12-01T07:08:56.900Z,1.23
2022-12-01T07:11:31.790Z,1.25
2022-12-01T07:14:00.969Z,1.25
2022-12-01T07:16:30.891Z,1.25
2022-12-01T07:19:00.481Z,1.26
2022-12-01T07:21:30.373Z,1.28
2022-12-01T07:24:00.074Z,1.28
2022-12-01T07:26:29.041Z,1.28
2022-12-01T07:28:57.765Z,1.27
2022-12-01T07:31:27.043Z,1.27
2022-12-01T07:33:55.435Z,1.26
2022-12-01T07:36:24.253Z,1.24
2022-12-01T07:38:52.823Z,1.22
2022-12-01T07:41:21.077Z,1.22
2022-12-01T07:43:49.983Z,1.23
2022-12-01T07:46:23.248Z,1.26
2022-12-01T07:48:53.173Z,1.28
2022-12-01T07:51:24.653Z,1.29
2022-12-01T07:53:55.338Z,1.31
2022-12-01T07:56:27.589Z,1.32
2022-12-01T07:58:56.545Z,1.32
2022-12-01T08:01:25.790Z,1.34
2022-12-01T08:03:56.295Z,1.38
2022-12-01T08:06:28.675Z,1.40
2022-12-01T08:08:57.022Z,1.42
2022-12-01T08:11:29.733Z,1.43
2022-12-01T08:13:58.376Z,1.44
2022-12-01T08:16:26.764Z,1.45
2022-12-01T08:18:55.548Z,1.44
2022-12-01T08:21:26.843Z,1.43
2022-12-01T08:23:57.942Z,1.44
2022-12-01T08:26:28.934Z,1.45
2022-12-01T08:28:57.909Z,1.46
2022-12-01T08:31:30.722Z,1.44
2022-12-01T08:33:59.730Z,1.46
2022-12-01T08:36:28.058Z,1.46
2022-12-01T08:38:56.776Z,1.45
2022-12-01T08:41:27.363Z,1.46
2022-12-01T08:43:59.114Z,1.47
2022-12-01T08:46:39.723Z,1.45
2022-12-01T08:49:10.041Z,1.43
2022-12-01T08:51:38.766Z,1.42
2022-12-01T08:54:07.345Z,1.43
2022-12-01T08:56:39.537Z,1.44
2022-12-01T08:59:10.361Z,1.46
2022-12-01T09:01:51.958Z,1.45
2022-12-01T09:04:24.387Z,1.49
2022-12-01T09:06:54.504Z,1.51
2022-12-01T09:09:28.897Z,1.50
2022-12-01T09:11:58.209Z,1.52
2022-12-01T09:14:30.456Z,1.54
2022-12-01T09:16:59.095Z,1.53
2022-12-01T09:19:28.442Z,1.54
2022-12-01T09:21:57.692Z,1.54
2022-12-01T09:24:26.670Z,1.55
2022-12-01T09:26:58.469Z,1.56
2022-12-01T09:29:27.070Z,1.55
2022-12-01T09:32:01.850Z,1.56
2022-12-01T09:34:37.428Z,1.55
2022-12-01T09:37:12.478Z,1.54
2022-12-01T09:39:45.550Z,1.52
2022-12-01T09:42:32.236Z,1.52
2022-12-01T09:48:07.918Z,1.47
2022-12-01T09:50:38.949Z,1.46
2022-12-01T09:53:18.755Z,1.45
2022-12-01T09:55:52.384Z,1.43
2022-12-01T09:58:28.830Z,1.39
2022-12-01T10:01:12.675Z,1.37
2022-12-01T10:03:47.893Z,1.36
2022-12-01T10:06:28.204Z,1.38
2022-12-01T10:09:05.477Z,1.39
2022-12-01T10:11:46.096Z,1.39
2022-12-01T10:14:20.527Z,1.36
2022-12-01T10:17:04.427Z,1.36
2022-12-01T10:19:37.267Z,1.39
2022-12-01T10:22:39.791Z,1.39
2022-12-01T10:25:19.146Z,1.34
2022-12-01T10:28:00.402Z,1.33
2022-12-01T10:30:41.498Z,1.35
2022-12-01T10:33:26.940Z,1.35
2022-12-01T10:35:57.656Z,1.35
2022-12-01T10:38:30.348Z,1.35
2022-12-01T10:41:09.643Z,1.36
2022-12-01T10:43:45.991Z,1.35
2022-12-01T10:46:23.075Z,1.35
2022-12-01T10:48:57.142Z,1.34
2022-12-01T10:51:27.400Z,1.32
2022-12-01T10:54:00.852Z,1.31
2022-12-01T10:56:31.083Z,1.30
2022-12-01T10:59:05.271Z,1.29
2022-12-01T11:01:35.181Z,1.30
2022-12-01T11:04:07.962Z,1.32
2022-12-01T11:06:38.386Z,1.32
2022-12-01T11:09:15.768Z,1.28
2022-12-01T11:11:44.966Z,1.26
2022-12-01T11:14:20.378Z,1.27
2022-12-01T11:16:52.982Z,1.27
2022-12-01T11:19:32.296Z,1.27
2022-12-01T11:22:22.070Z,1.28
2022-12-01T11:25:23.714Z,1.29
2022-12-01T11:27:57.296Z,1.29
2022-12-01T11:30:30.236Z,1.29
2022-12-01T11:33:00.173Z,1.27
2022-12-01T11:35:30.463Z,1.27
2022-12-01T11:41:10.192Z,1.29
2022-12-01T11:43:42.610Z,1.30
2022-12-01T11:46:16.345Z,1.30
2022-12-01T11:48:57.734Z,1.28
2022-12-01T11:51:32.318Z,1.26
2022-12-01T11:54:14.351Z,1.27
2022-12-01T11:56:56.144Z,1.28
2022-12-01T11:59:40.888Z,1.30
2022-12-01T12:02:31.314Z,1.30
2022-12-01T12:05:42.544Z,1.30
2022-12-01T12:08:21.563Z,1.27
2022-12-01T12:10:58.922Z,1.26
2022-12-01T12:13:51.218Z,1.24
2022-12-01T12:16:28.846Z,1.22
2022-12-01T12:19:17.062Z,1.20
2022-12-01T12:22:08.670Z,1.19
2022-12-01T12:24:49.430Z,1.19
2022-12-01T12:27:30.264Z,1.19
2022-12-01T12:30:15.707Z,1.17
2022-12-01T12:33:25.746Z,1.18
2022-12-01T12:36:01.678Z,1.17
2022-12-01T12:38:47.255Z,1.17
2022-12-01T12:41:29.021Z,1.17
2022-12-01T12:44:08.429Z,1.14
2022-12-01T12:46:43.080Z,1.09
2022-12-01T12:49:21.754Z,1.07
2022-12-01T12:51:54.224Z,1.06
2022-12-01T12:54:27.303Z,1.05
2022-12-01T12:57:18.720Z,1.04
2022-12-01T12:59:52.087Z,1.02
2022-12-01T13:02:29.032Z,1.00
2022-12-01T13:05:01.204Z,0.99
2022-12-01T13:07:37.297Z,0.98
2022-12-01T13:10:11.918Z,0.97
2022-12-01T13:12:52.048Z,0.97
2022-12-01T13:15:21.623Z,0.96
2022-12-01T13:17:52.772Z,0.96
2022-12-01T13:20:27.089Z,0.95
2022-12-01T13:22:57.168Z,0.95
2022-12-01T13:25:32.600Z,0.93
2022-12-01T13:28:22.332Z,0.90
2022-12-01T13:31:14.471Z,0.86
2022-12-01T13:33:49.652Z,0.82
2022-12-01T13:36:45.850Z,0.83
2022-12-01T13:39:38.735Z,0.82
2022-12-01T13:42:10.363Z,0.80
2022-12-01T13:44:43.218Z,0.79
2022-12-01T13:47:34.352Z,0.77
2022-12-01T13:50:35.250Z,0.76
2022-12-01T13:53:12.898Z,0.74
2022-12-01T13:56:11.657Z,0.73
2022-12-01T13:59:15.139Z,0.69
2022-12-01T14:01:49.289Z,0.64
2022-12-01T14:04:30.131Z,0.60
2022-12-01T14:07:20.710Z,0.58
2022-12-01T14:09:54.803Z,0.56
2022-12-01T14:12:26.168Z,0.53
2022-12-01T14:15:02.045Z,0.50
2022-12-01T14:17:34.898Z,0.48
2022-12-01T14:20:19.977Z,0.44
2022-12-01T14:23:14.386Z,0.42
2022-12-01T14:25:46.325Z,0.40
2022-12-01T14:28:40.659Z,0.38
2022-12-01T14:32:22.317Z,0.40
2022-12-01T14:35:08.924Z,0.40
2022-12-01T14:37:50.978Z,0.38
2022-12-01T14:40:35.479Z,0.36
2022-12-01T14:43:32.509Z,0.34
2022-12-01T14:46:21.306Z,0.34
2022-12-01T14:48:50.452Z,0.34
2022-12-01T14:51:26.126Z,0.33
2022-12-01T14:53:56.326Z,0.31
2022-12-01T14:56:33.098Z,0.28
2022-12-01T14:59:18.723Z,0.24
2022-12-01T15:01:49.865Z,0.22
2022-12-01T15:04:19.787Z,0.20
2022-12-01T15:06:56.717Z,0.18
2022-12-01T15:09:35.191Z,0.19
2022-12-01T15:12:06.753Z,0.21
2022-12-01T15:14:40.823Z,0.21
2022-12-01T15:17:30.122Z,0.19
2022-12-01T15:20:01.655Z,0.17
2022-12-01T15:22:31.638Z,0.15
2022-12-01T15:25:08.046Z,0.13
2022-12-01T15:27:36.877Z,0.09
2022-12-01T15:30:10.021Z,0.05
2022-12-01T15:32:39.017Z,0.03
2022-12-01T15:35:11.843Z,0.02
2022-12-01T15:37:42.769Z,0.01
2022-12-01T15:43:14.812Z,-0.03
2022-12-01T15:45:48.624Z,-0.04
2022-12-01T15:48:24.689Z,-0.03
2022-12-01T15:51:15.780Z,-0.02
2022-12-01T15:53:49.630Z,-0.05
2022-12-01T15:56:26.031Z,-0.07
2022-12-01T15:58:59.363Z,-0.08
2022-12-01T16:13:43.480Z,0.32
2022-12-01T16:16:38.488Z,0.32
2022-12-01T16:19:39.176Z,0.23
2022-12-01T16:22:18.587Z,0.13
2022-12-01T16:24:53.562Z,0.05
2022-12-01T16:27:26.791Z,-0.01
2022-12-01T16:30:00.659Z,-0.09
2022-12-01T16:32:32.525Z,-0.14
2022-12-01T16:35:04.437Z,-0.23
2022-12-01T16:37:36.339Z,-0.30
2022-12-01T16:40:14.158Z,-0.37
2022-12-01T16:42:46.083Z,-0.42
2022-12-01T16:45:19.371Z,-0.46
2022-12-01T16:47:51.809Z,-0.51
2022-12-01T16:50:25.253Z,-0.55
2022-12-01T16:52:57.447Z,-0.59
2022-12-01T16:55:38.724Z,-0.63
2022-12-01T16:58:10.847Z,-0.67
2022-12-01T17:00:43.074Z,-0.71
2022-12-01T17:03:17.061Z,-0.73
2022-12-01T17:05:49.240Z,-0.77
2022-12-01T17:08:21.722Z,-0.79
2022-12-01T17:10:53.987Z,-0.81
2022-12-01T17:13:25.952Z,-0.83
2022-12-01T17:15:58.057Z,-0.84
2022-12-01T17:18:30.583Z,-0.85
2022-12-01T17:21:03.375Z,-0.86
2022-12-01T17:23:37.903Z,-0.88
2022-12-01T17:26:12.858Z,-0.89
2022-12-01T17:28:44.544Z,-0.93
2022-12-01T17:31:17.301Z,-0.97
2022-12-01T17:33:49.519Z,-0.99
2022-12-01T17:36:21.499Z,-1.00
2022-12-01T17:38:53.062Z,-1.00
2022-12-01T17:41:25.609Z,-1.00
2022-12-01T17:43:58.506Z,-1.01
2022-12-01T17:46:30.738Z,-1.00
2022-12-01T17:49:08.589Z,-0.99
2022-12-01T17:51:40.661Z,-1.00
2022-12-01T17:54:12.427Z,-1.01
2022-12-01T17:56:46.982Z,-1.01
2022-12-01T17:59:21.862Z,-1.00
2022-12-01T18:01:53.819Z,-1.00
2022-12-01T18:04:25.683Z,-1.00
2022-12-01T18:06:57.654Z,-0.99
2022-12-01T18:09:29.330Z,-1.00
2022-12-01T18:12:01.888Z,-1.01
2022-12-01T18:14:34.681Z,-1.03
2022-12-01T18:17:06.659Z,-1.04
2022-12-01T18:19:38.345Z,-1.05
2022-12-01T18:22:10.368Z,-1.06
2022-12-01T18:24:42.488Z,-1.05
2022-12-01T18:27:14.326Z,-1.05
2022-12-01T18:29:46.154Z,-1.06
2022-12-01T18:32:18.474Z,-1.08
2022-12-01T18:34:50.574Z,-1.09
2022-12-01T18:37:22.822Z,-1.08
2022-12-01T18:39:58.043Z,-1.07
2022-12-01T18:42:30.018Z,-1.06
2022-12-01T18:45:01.940Z,-1.08
2022-12-01T18:47:35.249Z,-1.11
2022-12-01T18:50:08.810Z,-1.14
2022-12-01T18:52:40.565Z,-1.16
2022-12-01T18:55:27.705Z,-1.16
2022-12-01T18:58:00.640Z,-1.20
2022-12-01T19:00:35.261Z,-1.21
2022-12-01T19:03:08.216Z,-1.23
2022-12-01T19:05:41.349Z,-1.22
2022-12-01T19:08:13.172Z,-1.19
2022-12-01T19:10:45.108Z,-1.19
2022-12-01T19:13:16.791Z,-1.18
2022-12-01T19:15:48.493Z,-1.18
2022-12-01T19:18:20.284Z,-1.19
2022-12-01T19:20:52.212Z,-1.19
2022-12-01T19:23:23.939Z,-1.19
2022-12-01T19:25:55.626Z,-1.18
2022-12-01T19:28:28.467Z,-1.18
2022-12-01T19:31:00.226Z,-1.21
2022-12-01T19:33:31.951Z,-1.22
2022-12-01T19:36:10.778Z,-1.21
2022-12-01T19:38:44.508Z,-1.23
2022-12-01T19:41:20.922Z,-1.24
2022-12-01T19:43:54.315Z,-1.23
2022-12-01T19:46:29.002Z,-1.24
2022-12-01T19:49:02.273Z,-1.27
2022-12-01T19:51:35.608Z,-1.28
2022-12-01T19:54:09.149Z,-1.29
2022-12-01T19:56:40.841Z,-1.30
2022-12-01T19:59:14.645Z,-1.31
2022-12-01T20:01:45.057Z,-1.33
2022-12-01T20:04:16.974Z,-1.36
2022-12-01T20:06:48.637Z,-1.40
2022-12-01T20:09:20.548Z,-1.42
2022-12-01T20:11:52.231Z,-1.44
2022-12-01T20:14:24.298Z,-1.45
2022-12-01T20:16:58.148Z,-1.48
2022-12-01T20:19:30.055Z,-1.50
2022-12-01T20:22:02.303Z,-1.50
2022-12-01T20:24:34.052Z,-1.51
2022-12-01T20:27:05.735Z,-1.50
2022-12-01T20:29:37.774Z,-1.48
2022-12-01T20:32:09.881Z,-1.47
2022-12-01T20:34:42.545Z,-1.45
2022-12-01T20:37:14.107Z,-1.43
2022-12-01T20:39:46.388Z,-1.42
2022-12-01T20:42:19.361Z,-1.41
2022-12-01T20:44:51.480Z,-1.41
2022-12-01T20:47:23.287Z,-1.40
2022-12-01T20:49:58.550Z,-1.40
2022-12-01T20:52:30.726Z,-1.41
2022-12-01T20:55:02.636Z,-1.42
2022-12-01T20:57:34.492Z,-1.40
2022-12-01T21:00:08.075Z,-1.40
2022-12-01T21:02:39.795Z,-1.39
2022-12-01T21:05:12.243Z,-1.40
2022-12-01T21:07:44.085Z,-1.40
2022-12-01T21:10:19.956Z,-1.40
2022-12-01T21:13:12.491Z,-1.40
2022-12-01T21:15:51.100Z,-1.40
2022-12-01T21:18:26.818Z,-1.41
2022-12-01T21:21:03.647Z,-1.41
2022-12-01T21:23:35.480Z,-1.41
2022-12-01T21:26:30.260Z,-1.42
2022-12-01T21:29:00.694Z,-1.42
2022-12-01T21:31:32.414Z,-1.42
2022-12-01T21:34:04.103Z,-1.42
2022-12-01T21:36:37.342Z,-1.43
2022-12-01T21:39:21.183Z,-1.41
2022-12-01T21:41:55.018Z,-1.38
2022-12-01T21:44:31.930Z,-1.37
2022-12-01T21:47:17.208Z,-1.37
2022-12-01T21:49:50.696Z,-1.39
2022-12-01T21:52:25.136Z,-1.39
2022-12-01T21:54:57.170Z,-1.41
2022-12-01T21:57:42.367Z,-1.42
2022-12-01T22:00:37.802Z,-1.44
2022-12-01T22:03:21.407Z,-1.48
2022-12-01T22:06:21.177Z,-1.49
2022-12-01T22:08:49.972Z,-1.48
2022-12-01T22:11:23.501Z,-1.50
2022-12-01T22:14:01.013Z,-1.49
2022-12-01T22:16:35.029Z,-1.48
2022-12-01T22:19:27.246Z,-1.49
2022-12-01T22:22:03.582Z,-1.51
2022-12-01T22:24:41.831Z,-1.52
2022-12-01T22:27:25.957Z,-1.53
2022-12-01T22:30:01.776Z,-1.52
2022-12-01T22:32:39.408Z,-1.53
2022-12-01T22:35:32.552Z,-1.52
2022-12-01T22:38:23.307Z,-1.53
2022-12-01T22:40:58.464Z,-1.52
2022-12-01T22:43:38.001Z,-1.53
2022-12-01T22:46:32.548Z,-1.53
2022-12-01T22:49:19.696Z,-1.56
2022-12-01T22:51:52.683Z,-1.59
2022-12-01T22:54:39.743Z,-1.61
2022-12-01T22:57:28.926Z,-1.62
2022-12-01T23:00:00.727Z,-1.63
2022-12-01T23:02:35.827Z,-1.62
2022-12-01T23:05:18.471Z,-1.64
2022-12-01T23:07:50.510Z,-1.64
2022-12-01T23:10:24.691Z,-1.63
2022-12-01T23:12:56.812Z,-1.63
2022-12-01T23:15:34.179Z,-1.65
2022-12-01T23:18:15.349Z,-1.67
2022-12-01T23:20:49.296Z,-1.70
2022-12-01T23:23:26.038Z,-1.74
2022-12-01T23:25:57.796Z,-1.78
2022-12-01T23:28:29.867Z,-1.81
2022-12-01T23:31:02.029Z,-1.84
2022-12-01T23:33:35.370Z,-1.86
2022-12-01T23:36:15.436Z,-1.87
2022-12-01T23:38:48.871Z,-1.87
2022-12-01T23:41:25.860Z,-1.91
2022-12-01T23:43:58.870Z,-1.93
2022-12-01T23:46:31.055Z,-1.94
2022-12-01T23:49:07.516Z,-1.97
2022-12-01T23:51:41.326Z,-1.98
2022-12-01T23:54:16.656Z,-2.00
2022-12-01T23:56:51.438Z,-2.04
2022-12-01T23:59:23.654Z,-2.06
